Time,TemperatureF,DewpointF,PressureIn,WindDirection,WindDirectionDegrees,WindSpeedMPH,WindSpeedGustMPH,Humidity,HourlyPrecipIn,Conditions,Clouds,dailyrainin,SoftwareType,DateUTC
2013-04-08 00:00:00,69.0,60.8,29.74,SSW,194,2.0,7.0,75,0.00,,CLR,0.00,VWS V14.01,2013-04-08 05:00:00,
2013-04-08 00:05:00,69.2,60.6,29.74,SSW,194,6.0,14.0,74,0.00,,CLR,0.00,VWS V14.01,2013-04-08 05:05:00,
2013-04-08 00:10:00,69.4,60.8,29.74,SE,126,5.0,13.0,74,0.00,,CLR,0.00,VWS V14.01,2013-04-08 05:10:00,
2013-04-08 00:15:00,69.4,60.8,29.74,SSW,210,3.0,11.0,74,0.00,,CLR,0.00,VWS V14.01,2013-04-08 05:15:00,
2013-04-08 00:20:00,69.4,60.8,29.74,SSE,152,5.0,11.0,74,0.00,,CLR,0.00,VWS V14.01,2013-04-08 05:20:00,
2013-04-08 00:25:00,69.5,60.5,29.74,SW,230,5.0,13.0,73,0.00,,CLR,0.00,VWS V14.01,2013-04-08 05:25:00,
2013-04-08 00:30:00,69.5,60.5,29.75,SSW,209,7.0,12.0,73,0.00,,CLR,0.00,VWS V14.01,2013-04-08 05:30:00,
2013-04-08 00:35:00,69.4,60.4,29.75,SSE,150,3.0,9.0,73,0.00,,CLR,0.00,VWS V14.01,2013-04-08 05:35:00,
2013-04-08 00:40:00,69.3,60.3,29.75,SE,144,14.0,14.0,73,0.00,,CLR,0.00,VWS V14.01,2013-04-08 05:40:00,
2013-04-08 00:45:00,69.4,60.4,29.75,South,186,5.0,14.0,73,0.00,,CLR,0.00,VWS V14.01,2013-04-08 05:45:00,
2013-04-08 00:50:00,69.2,60.6,29.75,South,181,7.0,12.0,74,0.00,,CLR,0.00,VWS V14.01,2013-04-08 05:50:00,
2013-04-08 00:55:00,69.1,60.5,29.75,SSW,213,6.0,13.0,74,0.00,,CLR,0.00,VWS V14.01,2013-04-08 05:55:00,
2013-04-08 01:00:00,69.0,60.4,29.75,SW,221,5.0,13.0,74,0.00,,FEW040,0.00,VWS V14.01,2013-04-08 06:00:00,
2013-04-08 01:05:00,68.9,60.3,29.75,SW,219,4.0,13.0,74,0.00,,FEW040,0.00,VWS V14.01,2013-04-08 06:05:00,
2013-04-08 01:10:00,68.7,60.1,29.75,SE,145,7.0,9.0,74,0.00,,FEW040,0.00,VWS V14.01,2013-04-08 06:10:00,
2013-04-08 01:15:00,68.6,60.0,29.76,SE,138,7.0,10.0,74,0.00,,FEW040,0.00,VWS V14.01,2013-04-08 06:15:00,
2013-04-08 01:20:00,68.6,60.0,29.76,SW,214,9.0,15.0,74,0.00,,FEW040,0.00,VWS V14.01,2013-04-08 06:20:00,
2013-04-08 01:25:00,68.5,59.9,29.76,SE,141,4.0,15.0,74,0.00,,FEW040,0.00,VWS V14.01,2013-04-08 06:25:00,
2013-04-08 01:30:00,68.4,59.8,29.76,SSE,168,4.0,11.0,74,0.00,,FEW040,0.00,VWS V14.01,2013-04-08 06:30:00,
2013-04-08 01:35:00,68.3,59.7,29.76,SSW,202,4.0,11.0,74,0.00,,FEW040,0.00,VWS V14.01,2013-04-08 06:35:00,
2013-04-08 01:40:00,68.2,59.6,29.76,South,172,10.0,10.0,74,0.00,,FEW040,0.00,VWS V14.01,2013-04-08 06:40:00,
2013-04-08 01:45:00,68.1,59.9,29.75,SW,226,6.0,12.0,75,0.00,,FEW040,0.00,VWS V14.01,2013-04-08 06:45:00,
2013-04-08 01:50:00,67.9,59.7,29.75,SSW,202,7.0,13.0,75,0.00,,FEW040,0.00,VWS V14.01,2013-04-08 06:50:00,
2013-04-08 01:55:00,67.8,59.6,29.75,NNW,337,5.0,13.0,75,0.00,,FEW040,0.00,VWS V14.01,2013-04-08 06:55:00,
2013-04-08 02:00:00,67.6,59.4,29.75,SSE,168,4.0,9.0,75,0.00,,CLR,0.00,VWS V14.01,2013-04-08 07:00:00,
2013-04-08 02:05:00,67.5,59.3,29.75,SE,124,4.0,12.0,75,0.00,,CLR,0.00,VWS V14.01,2013-04-08 07:05:00,
2013-04-08 02:10:00,67.4,59.2,29.75,South,178,4.0,10.0,75,0.00,,CLR,0.00,VWS V14.01,2013-04-08 07:10:00,
2013-04-08 02:15:00,67.2,59.4,29.75,SSW,198,5.0,10.0,76,0.00,,CLR,0.00,VWS V14.01,2013-04-08 07:15:00,
2013-04-08 02:20:00,67.0,59.2,29.75,SW,233,3.0,8.0,76,0.00,,CLR,0.00,VWS V14.01,2013-04-08 07:20:00,
2013-04-08 02:26:00,66.8,59.0,29.74,SSE,161,5.0,10.0,76,0.00,,CLR,0.00,VWS V14.01,2013-04-08 07:26:00,
2013-04-08 02:31:00,66.8,59.0,29.74,SE,136,4.0,9.0,76,0.00,,CLR,0.00,VWS V14.01,2013-04-08 07:31:00,
2013-04-08 02:36:00,66.6,59.2,29.74,SE,145,3.0,9.0,77,0.00,,CLR,0.00,VWS V14.01,2013-04-08 07:36:00,
2013-04-08 02:41:00,66.5,59.1,29.74,South,175,2.0,10.0,77,0.00,,CLR,0.00,VWS V14.01,2013-04-08 07:41:00,
2013-04-08 02:46:00,66.4,59.0,29.73,South,178,6.0,12.0,77,0.00,,CLR,0.00,VWS V14.01,2013-04-08 07:46:00,
2013-04-08 02:51:00,66.2,59.2,29.73,SSW,200,5.0,7.0,78,0.00,,CLR,0.00,VWS V14.01,2013-04-08 07:51:00,
2013-04-08 02:56:00,66.2,59.2,29.73,WSW,244,4.0,4.0,78,0.00,,CLR,0.00,VWS V14.01,2013-04-08 07:56:00,
2013-04-08 03:01:00,66.3,59.2,29.73,SSW,196,6.0,11.0,78,0.00,,BKN025,0.00,VWS V14.01,2013-04-08 08:01:00,
2013-04-08 03:06:00,66.3,59.2,29.73,SSE,167,4.0,6.0,78,0.00,,BKN025,0.00,VWS V14.01,2013-04-08 08:06:00,
2013-04-08 03:11:00,66.4,59.3,29.73,SSW,208,3.0,3.0,78,0.00,,BKN025,0.00,VWS V14.01,2013-04-08 08:11:00,
2013-04-08 03:16:00,66.4,59.3,29.72,SSE,155,6.0,7.0,78,0.00,,BKN025,0.00,VWS V14.01,2013-04-08 08:16:00,
2013-04-08 03:21:00,66.5,59.4,29.72,WNW,296,3.0,8.0,78,0.00,,BKN025,0.00,VWS V14.01,2013-04-08 08:21:00,
2013-04-08 03:26:00,66.4,59.3,29.72,WSW,240,5.0,9.0,78,0.00,,BKN025,0.00,VWS V14.01,2013-04-08 08:26:00,
2013-04-08 03:31:00,66.4,59.3,29.72,SW,217,3.0,5.0,78,0.00,,BKN025,0.00,VWS V14.01,2013-04-08 08:31:00,
2013-04-08 03:36:00,66.4,59.3,29.72,SSE,159,4.0,4.0,78,0.00,,BKN025,0.00,VWS V14.01,2013-04-08 08:36:00,
2013-04-08 03:42:00,66.4,59.7,29.72,SW,223,3.0,5.0,79,0.00,,BKN025,0.00,VWS V14.01,2013-04-08 08:42:00,
2013-04-08 03:47:00,66.4,59.7,29.72,SE,138,2.0,6.0,79,0.00,,BKN025,0.00,VWS V14.01,2013-04-08 08:47:00,
2013-04-08 03:52:00,66.4,59.7,29.72,SSE,160,5.0,7.0,79,0.00,,BKN025,0.00,VWS V14.01,2013-04-08 08:52:00,
2013-04-08 03:57:00,66.4,59.7,29.72,SSE,155,7.0,7.0,79,0.00,,BKN025,0.00,VWS V14.01,2013-04-08 08:57:00,
2013-04-08 04:02:00,66.4,59.7,29.72,SSE,150,3.0,6.0,79,0.00,,BKN025,0.00,VWS V14.01,2013-04-08 09:02:00,
2013-04-08 04:07:00,66.4,59.7,29.72,South,176,4.0,6.0,79,0.00,,BKN025,0.00,VWS V14.01,2013-04-08 09:07:00,
2013-04-08 04:12:00,66.5,59.8,29.72,SE,142,5.0,7.0,79,0.00,,BKN025,0.00,VWS V14.01,2013-04-08 09:12:00,
2013-04-08 04:17:00,66.5,59.8,29.72,South,178,5.0,7.0,79,0.00,,BKN025,0.00,VWS V14.01,2013-04-08 09:17:00,
2013-04-08 04:22:00,66.6,59.9,29.71,South,171,4.0,8.0,79,0.00,,BKN025,0.00,VWS V14.01,2013-04-08 09:22:00,
2013-04-08 04:27:00,66.6,59.9,29.71,South,178,5.0,9.0,79,0.00,,BKN025,0.00,VWS V14.01,2013-04-08 09:27:00,
2013-04-08 04:32:00,66.7,60.3,29.71,SSE,151,9.0,13.0,80,0.00,,BKN025,0.00,VWS V14.01,2013-04-08 09:32:00,
2013-04-08 04:37:00,66.8,60.1,29.71,SW,227,4.0,8.0,79,0.00,,BKN025,0.00,VWS V14.01,2013-04-08 09:37:00,
2013-04-08 04:42:00,66.8,60.4,29.71,South,184,4.0,9.0,80,0.00,,BKN025,0.00,VWS V14.01,2013-04-08 09:42:00,
2013-04-08 04:47:00,66.9,60.5,29.71,SSW,207,3.0,5.0,80,0.00,,BKN025,0.00,VWS V14.01,2013-04-08 09:47:00,
2013-04-08 04:52:00,66.9,60.5,29.71,SSE,155,4.0,14.0,80,0.00,,BKN025,0.00,VWS V14.01,2013-04-08 09:52:00,
2013-04-08 04:57:00,67.0,60.6,29.71,SSW,205,7.0,12.0,80,0.00,,BKN025,0.00,VWS V14.01,2013-04-08 09:57:00,
2013-04-08 05:02:00,67.0,60.6,29.71,SSW,209,7.0,8.0,80,0.00,,OVC019,0.00,VWS V14.01,2013-04-08 10:02:00,
2013-04-08 05:07:00,67.0,60.6,29.71,SSW,199,7.0,7.0,80,0.00,,OVC019,0.00,VWS V14.01,2013-04-08 10:07:00,
2013-04-08 05:12:00,67.0,60.6,29.71,South,184,6.0,12.0,80,0.00,,OVC019,0.00,VWS V14.01,2013-04-08 10:12:00,
2013-04-08 05:17:00,67.0,61.0,29.72,South,182,4.0,12.0,81,0.00,,OVC019,0.00,VWS V14.01,2013-04-08 10:17:00,
2013-04-08 05:22:00,67.0,61.0,29.71,SSW,207,6.0,10.0,81,0.00,,OVC019,0.00,VWS V14.01,2013-04-08 10:22:00,
2013-04-08 05:27:00,67.0,61.0,29.71,SSW,209,7.0,10.0,81,0.00,,OVC019,0.00,VWS V14.01,2013-04-08 10:27:00,
2013-04-08 05:32:00,67.0,61.0,29.71,SSE,155,6.0,13.0,81,0.00,,OVC019,0.00,VWS V14.01,2013-04-08 10:32:00,
2013-04-08 05:37:00,67.0,61.0,29.71,East,83,7.0,12.0,81,0.00,,OVC019,0.00,VWS V14.01,2013-04-08 10:37:00,
2013-04-08 05:42:00,66.9,60.9,29.71,SW,227,6.0,10.0,81,0.00,,OVC019,0.00,VWS V14.01,2013-04-08 10:42:00,
2013-04-08 05:47:00,66.9,60.9,29.71,South,179,5.0,6.0,81,0.00,,OVC019,0.00,VWS V14.01,2013-04-08 10:47:00,
2013-04-08 05:52:00,66.9,60.9,29.72,SSW,213,4.0,9.0,81,0.00,,OVC019,0.00,VWS V14.01,2013-04-08 10:52:00,
2013-04-08 05:57:00,66.9,61.2,29.71,SSW,201,6.0,11.0,82,0.00,,OVC019,0.00,VWS V14.01,2013-04-08 10:57:00,
2013-04-08 06:02:00,66.9,61.2,29.71,WSW,245,3.0,8.0,82,0.00,,OVC017,0.00,VWS V14.01,2013-04-08 11:02:00,
2013-04-08 06:07:00,66.9,61.2,29.71,SE,144,6.0,10.0,82,0.00,,OVC017,0.00,VWS V14.01,2013-04-08 11:07:00,
2013-04-08 06:12:00,66.9,61.2,29.72,South,175,7.0,7.0,82,0.00,,OVC017,0.00,VWS V14.01,2013-04-08 11:12:00,
2013-04-08 06:17:00,66.9,61.2,29.72,SSE,150,4.0,13.0,82,0.00,,OVC017,0.00,VWS V14.01,2013-04-08 11:17:00,
2013-04-08 06:22:00,66.9,61.2,29.72,SW,223,6.0,9.0,82,0.00,,OVC017,0.00,VWS V14.01,2013-04-08 11:22:00,
2013-04-08 06:27:00,66.9,61.2,29.72,SW,218,5.0,10.0,82,0.00,,OVC017,0.00,VWS V14.01,2013-04-08 11:27:00,
2013-04-08 06:32:00,66.9,61.2,29.72,SE,142,8.0,9.0,82,0.00,,OVC017,0.00,VWS V14.01,2013-04-08 11:32:00,
2013-04-08 06:38:00,66.9,61.2,29.72,SE,143,7.0,13.0,82,0.00,,OVC017,0.00,VWS V14.01,2013-04-08 11:38:00,
2013-04-08 06:43:00,66.9,61.2,29.72,SW,221,6.0,8.0,82,0.00,,OVC017,0.00,VWS V14.01,2013-04-08 11:43:00,
2013-04-08 06:48:00,66.9,61.2,29.72,SSE,155,5.0,9.0,82,0.00,,OVC017,0.00,VWS V14.01,2013-04-08 11:48:00,
2013-04-08 06:53:00,67.0,61.3,29.72,SSE,155,3.0,9.0,82,0.00,,OVC017,0.00,VWS V14.01,2013-04-08 11:53:00,
2013-04-08 06:58:00,67.0,61.3,29.72,WSW,238,5.0,11.0,82,0.00,,OVC017,0.00,VWS V14.01,2013-04-08 11:58:00,
2013-04-08 07:03:00,67.1,61.4,29.73,SSW,202,5.0,8.0,82,0.00,,BKN016,0.00,VWS V14.01,2013-04-08 12:03:00,
2013-04-08 07:08:00,67.1,61.1,29.73,South,182,7.0,10.0,81,0.00,,BKN016,0.00,VWS V14.01,2013-04-08 12:08:00,
2013-04-08 07:13:00,67.2,61.2,29.73,South,173,5.0,12.0,81,0.00,,BKN016,0.00,VWS V14.01,2013-04-08 12:13:00,
2013-04-08 07:18:00,67.3,61.3,29.73,SSW,210,7.0,14.0,81,0.00,,BKN016,0.00,VWS V14.01,2013-04-08 12:18:00,
2013-04-08 07:23:00,67.3,60.9,29.73,SW,236,12.0,12.0,80,0.00,,BKN016,0.00,VWS V14.01,2013-04-08 12:23:00,
2013-04-08 07:28:00,67.4,61.0,29.73,SSE,153,8.0,15.0,80,0.00,,BKN016,0.00,VWS V14.01,2013-04-08 12:28:00,
2013-04-08 07:33:00,67.5,61.1,29.73,SSE,160,13.0,13.0,80,0.00,,BKN016,0.00,VWS V14.01,2013-04-08 12:33:00,
2013-04-08 07:38:00,67.5,60.8,29.73,SSE,164,5.0,10.0,79,0.00,,BKN016,0.00,VWS V14.01,2013-04-08 12:38:00,
2013-04-08 07:43:00,67.6,60.9,29.74,SSW,201,6.0,14.0,79,0.00,,BKN016,0.00,VWS V14.01,2013-04-08 12:43:00,
2013-04-08 07:48:00,67.6,60.9,29.74,SSW,210,7.0,11.0,79,0.00,,BKN016,0.00,VWS V14.01,2013-04-08 12:48:00,
2013-04-08 07:53:00,67.7,61.0,29.73,SSW,205,2.0,8.0,79,0.00,,BKN016,0.00,VWS V14.01,2013-04-08 12:53:00,
2013-04-08 07:58:00,67.7,61.0,29.73,SW,233,4.0,9.0,79,0.00,,BKN016,0.00,VWS V14.01,2013-04-08 12:58:00,
2013-04-08 08:03:00,67.7,61.0,29.74,South,188,3.0,10.0,79,0.00,,OVC022,0.00,VWS V14.01,2013-04-08 13:03:00,
2013-04-08 08:08:00,67.7,61.0,29.74,SE,146,5.0,9.0,79,0.00,,OVC022,0.00,VWS V14.01,2013-04-08 13:08:00,
2013-04-08 08:13:00,67.8,61.1,29.74,South,173,3.0,9.0,79,0.00,,OVC022,0.00,VWS V14.01,2013-04-08 13:13:00,
2013-04-08 08:18:00,67.9,61.2,29.74,SSE,152,5.0,9.0,79,0.00,,OVC022,0.00,VWS V14.01,2013-04-08 13:18:00,
2013-04-08 08:23:00,67.9,61.2,29.74,South,190,4.0,11.0,79,0.00,,OVC022,0.00,VWS V14.01,2013-04-08 13:23:00,
2013-04-08 08:28:00,68.1,61.3,29.74,SW,217,8.0,13.0,79,0.00,,OVC022,0.00,VWS V14.01,2013-04-08 13:28:00,
2013-04-08 08:33:00,68.2,61.1,29.74,SW,236,4.0,12.0,78,0.00,,OVC022,0.00,VWS V14.01,2013-04-08 13:33:00,
2013-04-08 08:38:00,68.3,61.2,29.74,South,191,5.0,10.0,78,0.00,,OVC022,0.00,VWS V14.01,2013-04-08 13:38:00,
2013-04-08 08:43:00,68.4,61.3,29.74,SE,131,3.0,14.0,78,0.00,,OVC022,0.00,VWS V14.01,2013-04-08 13:43:00,
2013-04-08 08:48:00,68.5,61.4,29.74,East,88,2.0,11.0,78,0.00,,OVC022,0.00,VWS V14.01,2013-04-08 13:48:00,
2013-04-08 08:53:00,68.7,61.6,29.74,WSW,244,7.0,7.0,78,0.00,,OVC022,0.00,VWS V14.01,2013-04-08 13:53:00,
2013-04-08 08:58:00,68.8,61.7,29.74,SSE,152,3.0,12.0,78,0.00,,OVC022,0.00,VWS V14.01,2013-04-08 13:58:00,
2013-04-08 09:03:00,68.9,61.8,29.74,SSE,163,6.0,10.0,78,0.00,,OVC025,0.00,VWS V14.01,2013-04-08 14:03:00,
2013-04-08 09:08:00,69.1,61.6,29.74,SSE,161,8.0,13.0,77,0.00,,OVC025,0.00,VWS V14.01,2013-04-08 14:08:00,
2013-04-08 09:13:00,69.2,61.7,29.73,SSE,168,4.0,10.0,77,0.00,,OVC025,0.00,VWS V14.01,2013-04-08 14:13:00,
2013-04-08 09:18:00,69.4,61.9,29.74,SW,222,5.0,15.0,77,0.00,,OVC025,0.00,VWS V14.01,2013-04-08 14:18:00,
2013-04-08 09:23:00,69.5,62.0,29.74,SSW,210,3.0,8.0,77,0.00,,OVC025,0.00,VWS V14.01,2013-04-08 14:23:00,
2013-04-08 09:28:00,69.6,62.1,29.74,South,180,6.0,9.0,77,0.00,,OVC025,0.00,VWS V14.01,2013-04-08 14:28:00,
2013-04-08 09:33:00,69.7,62.2,29.73,SE,134,7.0,11.0,77,0.00,,OVC025,0.00,VWS V14.01,2013-04-08 14:33:00,
2013-04-08 09:38:00,69.9,62.4,29.73,SSE,155,5.0,10.0,77,0.00,,OVC025,0.00,VWS V14.01,2013-04-08 14:38:00,
2013-04-08 09:43:00,70.2,62.3,29.73,SW,221,7.0,15.0,76,0.00,,OVC025,0.00,VWS V14.01,2013-04-08 14:43:00,
2013-04-08 09:48:00,70.5,62.6,29.73,South,183,6.0,12.0,76,0.00,,OVC025,0.00,VWS V14.01,2013-04-08 14:48:00,
2013-04-08 09:53:00,70.6,62.7,29.73,South,171,3.0,8.0,76,0.00,,OVC025,0.00,VWS V14.01,2013-04-08 14:53:00,
2013-04-08 09:58:00,70.9,62.6,29.74,SW,217,5.0,9.0,75,0.00,,OVC025,0.00,VWS V14.01,2013-04-08 14:58:00,
2013-04-08 10:03:00,71.1,62.8,29.74,South,191,14.0,14.0,75,0.00,,BKN029,0.00,VWS V14.01,2013-04-08 15:03:00,
2013-04-08 10:09:00,71.1,62.8,29.74,SSE,160,7.0,12.0,75,0.00,,BKN029,0.00,VWS V14.01,2013-04-08 15:09:00,
2013-04-08 10:14:00,71.4,63.1,29.74,South,175,6.0,11.0,75,0.00,,BKN029,0.00,VWS V14.01,2013-04-08 15:14:00,
2013-04-08 10:19:00,71.5,62.8,29.74,SSE,158,5.0,11.0,74,0.00,,BKN029,0.00,VWS V14.01,2013-04-08 15:19:00,
2013-04-08 10:24:00,71.4,63.1,29.74,South,183,12.0,12.0,75,0.00,,BKN029,0.00,VWS V14.01,2013-04-08 15:24:00,
2013-04-08 10:30:00,71.4,63.1,29.74,SSE,150,4.0,15.0,75,0.00,,BKN029,0.00,VWS V14.01,2013-04-08 15:30:00,
2013-04-08 10:35:00,71.6,62.9,29.74,SSW,200,5.0,15.0,74,0.00,,BKN029,0.00,VWS V14.01,2013-04-08 15:35:00,
2013-04-08 10:40:00,71.7,63.0,29.74,South,183,6.0,15.0,74,0.00,,BKN029,0.00,VWS V14.01,2013-04-08 15:40:00,
2013-04-08 10:46:00,71.8,63.1,29.74,South,184,9.0,17.0,74,0.00,,BKN029,0.00,VWS V14.01,2013-04-08 15:46:00,
2013-04-08 10:51:00,72.0,63.3,29.74,SSW,196,8.0,13.0,74,0.00,,BKN029,0.00,VWS V14.01,2013-04-08 15:51:00,
2013-04-08 10:56:00,72.2,63.1,29.74,ESE,121,2.0,10.0,73,0.00,,BKN029,0.00,VWS V14.01,2013-04-08 15:56:00,
2013-04-08 11:01:00,72.3,63.2,29.75,ESE,104,7.0,11.0,73,0.00,,BKN029,0.00,VWS V14.01,2013-04-08 16:01:00,
2013-04-08 11:06:00,72.4,63.3,29.75,South,188,5.0,16.0,73,0.00,,BKN029,0.00,VWS V14.01,2013-04-08 16:06:00,
2013-04-08 11:11:00,72.4,63.3,29.74,SE,124,10.0,16.0,73,0.00,,BKN029,0.00,VWS V14.01,2013-04-08 16:11:00,
2013-04-08 11:16:00,72.5,63.4,29.75,South,187,4.0,16.0,73,0.00,,BKN029,0.00,VWS V14.01,2013-04-08 16:16:00,
2013-04-08 11:21:00,72.5,63.4,29.74,South,191,8.0,12.0,73,0.00,,BKN029,0.00,VWS V14.01,2013-04-08 16:21:00,
2013-04-08 11:26:00,72.5,63.4,29.74,SSE,155,10.0,13.0,73,0.00,,BKN029,0.00,VWS V14.01,2013-04-08 16:26:00,
2013-04-08 11:31:00,72.8,63.7,29.74,SSW,201,4.0,4.0,73,0.00,,BKN029,0.00,VWS V14.01,2013-04-08 16:31:00,
2013-04-08 11:36:00,72.8,63.3,29.74,SW,216,7.0,9.0,72,0.00,,BKN029,0.00,VWS V14.01,2013-04-08 16:36:00,
2013-04-08 11:41:00,72.9,63.3,29.74,SSW,205,6.0,12.0,72,0.00,,BKN029,0.00,VWS V14.01,2013-04-08 16:41:00,
2013-04-08 11:47:00,73.2,63.6,29.74,SE,146,8.0,9.0,72,0.00,,BKN029,0.00,VWS V14.01,2013-04-08 16:47:00,
2013-04-08 11:52:00,73.6,63.2,29.74,East,97,10.0,12.0,70,0.00,,BKN029,0.00,VWS V14.01,2013-04-08 16:52:00,
2013-04-08 11:57:00,73.7,63.7,29.74,South,186,5.0,14.0,71,0.00,,BKN029,0.00,VWS V14.01,2013-04-08 16:57:00,
2013-04-08 12:02:00,73.9,63.9,29.74,SSW,195,4.0,8.0,71,0.00,,OVC028,0.00,VWS V14.01,2013-04-08 17:02:00,
2013-04-08 12:07:00,74.0,64.0,29.74,SE,141,6.0,10.0,71,0.00,,OVC028,0.00,VWS V14.01,2013-04-08 17:07:00,
2013-04-08 12:12:00,74.0,64.0,29.74,South,187,5.0,14.0,71,0.00,,OVC028,0.00,VWS V14.01,2013-04-08 17:12:00,
2013-04-08 12:17:00,73.8,63.8,29.74,SSE,163,7.0,10.0,71,0.00,,OVC028,0.00,VWS V14.01,2013-04-08 17:17:00,
2013-04-08 12:22:00,74.0,63.6,29.74,SSW,206,8.0,14.0,70,0.00,,OVC028,0.00,VWS V14.01,2013-04-08 17:22:00,
2013-04-08 12:27:00,73.9,63.5,29.73,SSW,194,7.0,15.0,70,0.00,,OVC028,0.00,VWS V14.01,2013-04-08 17:27:00,
2013-04-08 12:32:00,73.9,64.3,29.73,South,184,7.0,13.0,72,0.00,,OVC028,0.00,VWS V14.01,2013-04-08 17:32:00,
2013-04-08 12:37:00,73.9,63.9,29.73,SW,215,6.0,14.0,71,0.00,,OVC028,0.00,VWS V14.01,2013-04-08 17:37:00,
2013-04-08 12:42:00,74.0,64.4,29.73,South,191,5.0,11.0,72,0.00,,OVC028,0.00,VWS V14.01,2013-04-08 17:42:00,
2013-04-08 12:48:00,74.6,64.6,29.73,South,173,6.0,13.0,71,0.00,,OVC028,0.00,VWS V14.01,2013-04-08 17:48:00,
2013-04-08 12:53:00,74.4,64.0,29.73,SSE,161,3.0,9.0,70,0.00,,OVC028,0.00,VWS V14.01,2013-04-08 17:53:00,
2013-04-08 12:58:00,74.4,64.4,29.73,WSW,253,6.0,9.0,71,0.00,,OVC028,0.00,VWS V14.01,2013-04-08 17:58:00,
2013-04-08 13:03:00,74.5,64.5,29.73,SW,215,3.0,12.0,71,0.00,,OVC034,0.00,VWS V14.01,2013-04-08 18:03:00,
2013-04-08 13:08:00,74.5,64.1,29.73,SW,214,4.0,12.0,70,0.00,,OVC034,0.00,VWS V14.01,2013-04-08 18:08:00,
2013-04-08 13:13:00,74.6,64.2,29.72,SSW,213,4.0,11.0,70,0.00,,OVC034,0.00,VWS V14.01,2013-04-08 18:13:00,
2013-04-08 13:18:00,74.6,64.2,29.72,SSE,150,4.0,15.0,70,0.00,,OVC034,0.00,VWS V14.01,2013-04-08 18:18:00,
2013-04-08 13:23:00,74.5,64.1,29.72,SSE,164,4.0,13.0,70,0.00,,OVC034,0.00,VWS V14.01,2013-04-08 18:23:00,
2013-04-08 13:28:00,74.6,64.2,29.72,South,184,10.0,10.0,70,0.00,,OVC034,0.00,VWS V14.01,2013-04-08 18:28:00,
2013-04-08 13:33:00,74.8,64.4,29.72,SW,223,8.0,13.0,70,0.00,,OVC034,0.00,VWS V14.01,2013-04-08 18:33:00,
2013-04-08 13:38:00,75.0,64.6,29.72,SSE,150,6.0,14.0,70,0.00,,OVC034,0.00,VWS V14.01,2013-04-08 18:38:00,
2013-04-08 13:43:00,75.0,64.6,29.72,SSE,165,5.0,9.0,70,0.00,,OVC034,0.00,VWS V14.01,2013-04-08 18:43:00,
2013-04-08 13:48:00,75.1,64.7,29.72,ESE,105,4.0,10.0,70,0.00,,OVC034,0.00,VWS V14.01,2013-04-08 18:48:00,
2013-04-08 13:53:00,75.3,64.8,29.71,SSW,210,5.0,7.0,70,0.00,,OVC034,0.00,VWS V14.01,2013-04-08 18:53:00,
2013-04-08 13:58:00,75.3,64.4,29.71,SSW,205,8.0,13.0,69,0.00,,OVC034,0.00,VWS V14.01,2013-04-08 18:58:00,
2013-04-08 14:03:00,75.1,64.2,29.71,SSE,158,10.0,14.0,69,0.00,,OVC036,0.00,VWS V14.01,2013-04-08 19:03:00,
2013-04-08 14:08:00,75.1,64.2,29.71,South,183,4.0,13.0,69,0.00,,OVC036,0.00,VWS V14.01,2013-04-08 19:08:00,
2013-04-08 14:13:00,75.3,64.4,29.71,South,179,6.0,10.0,69,0.00,,OVC036,0.00,VWS V14.01,2013-04-08 19:13:00,
2013-04-08 14:18:00,75.5,65.0,29.71,SSE,161,6.0,8.0,70,0.00,,OVC036,0.00,VWS V14.01,2013-04-08 19:18:00,
2013-04-08 14:23:00,75.6,64.7,29.71,SSE,167,12.0,15.0,69,0.00,,OVC036,0.00,VWS V14.01,2013-04-08 19:23:00,
2013-04-08 14:28:00,75.5,64.6,29.71,SSE,168,5.0,11.0,69,0.00,,OVC036,0.00,VWS V14.01,2013-04-08 19:28:00,
2013-04-08 14:33:00,75.5,64.6,29.70,South,184,6.0,12.0,69,0.00,,OVC036,0.00,VWS V14.01,2013-04-08 19:33:00,
2013-04-08 14:38:00,75.4,64.5,29.70,South,173,2.0,12.0,69,0.00,,OVC036,0.00,VWS V14.01,2013-04-08 19:38:00,
2013-04-08 14:43:00,75.5,64.6,29.70,East,101,5.0,19.0,69,0.00,,OVC036,0.00,VWS V14.01,2013-04-08 19:43:00,
2013-04-08 14:48:00,75.4,64.9,29.70,SW,230,6.0,12.0,70,0.00,,OVC036,0.00,VWS V14.01,2013-04-08 19:48:00,
2013-04-08 14:53:00,75.5,65.0,29.70,South,175,2.0,8.0,70,0.00,,OVC036,0.00,VWS V14.01,2013-04-08 19:53:00,
2013-04-08 14:58:00,75.8,65.3,29.70,South,191,5.0,9.0,70,0.00,,OVC036,0.00,VWS V14.01,2013-04-08 19:58:00,
2013-04-08 15:03:00,76.0,65.1,29.70,South,175,5.0,14.0,69,0.00,,OVC045,0.00,VWS V14.01,2013-04-08 20:03:00,
2013-04-08 15:08:00,76.0,65.1,29.70,SW,230,8.0,11.0,69,0.00,,OVC045,0.00,VWS V14.01,2013-04-08 20:08:00,
2013-04-08 15:13:00,75.8,64.9,29.70,SE,133,5.0,18.0,69,0.00,,OVC045,0.00,VWS V14.01,2013-04-08 20:13:00,
2013-04-08 15:18:00,75.9,65.0,29.70,South,176,4.0,13.0,69,0.00,,OVC045,0.00,VWS V14.01,2013-04-08 20:18:00,
2013-04-08 15:23:00,76.1,64.8,29.69,SSE,164,8.0,10.0,68,0.00,,OVC045,0.00,VWS V14.01,2013-04-08 20:23:00,
2013-04-08 15:28:00,76.3,65.4,29.69,SE,139,5.0,8.0,69,0.00,,OVC045,0.00,VWS V14.01,2013-04-08 20:28:00,
2013-04-08 15:33:00,76.2,64.9,29.69,South,178,6.0,13.0,68,0.00,,OVC045,0.00,VWS V14.01,2013-04-08 20:33:00,
2013-04-08 15:38:00,75.7,64.8,29.68,East,84,13.0,17.0,69,0.00,,OVC045,0.00,VWS V14.01,2013-04-08 20:38:00,
2013-04-08 15:43:00,75.4,64.9,29.68,South,178,7.0,12.0,70,0.00,,OVC045,0.00,VWS V14.01,2013-04-08 20:43:00,
2013-04-08 15:48:00,75.4,64.9,29.68,South,184,5.0,12.0,70,0.00,,OVC045,0.00,VWS V14.01,2013-04-08 20:48:00,
2013-04-08 15:53:00,75.6,65.1,29.68,SSE,159,2.0,9.0,70,0.00,,OVC045,0.00,VWS V14.01,2013-04-08 20:53:00,
2013-04-08 15:58:00,75.9,65.4,29.68,SSE,167,6.0,8.0,70,0.00,,OVC045,0.00,VWS V14.01,2013-04-08 20:58:00,
2013-04-08 16:03:00,75.6,65.1,29.67,South,173,3.0,7.0,70,0.00,,OVC047,0.00,VWS V14.01,2013-04-08 21:03:00,
2013-04-08 16:08:00,75.3,65.3,29.67,SE,141,6.0,9.0,71,0.00,,OVC047,0.00,VWS V14.01,2013-04-08 21:08:00,
2013-04-08 16:13:00,75.1,65.1,29.67,SSE,155,4.0,8.0,71,0.00,,OVC047,0.00,VWS V14.01,2013-04-08 21:13:00,
2013-04-08 16:18:00,75.1,65.1,29.67,SW,230,8.0,11.0,71,0.00,,OVC047,0.00,VWS V14.01,2013-04-08 21:18:00,
2013-04-08 16:23:00,75.2,65.2,29.67,SSE,155,6.0,15.0,71,0.00,,OVC047,0.00,VWS V14.01,2013-04-08 21:23:00,
2013-04-08 16:28:00,75.4,65.3,29.67,SSW,200,4.0,11.0,71,0.00,,OVC047,0.00,VWS V14.01,2013-04-08 21:28:00,
2013-04-08 16:33:00,75.3,65.3,29.67,SE,126,4.0,11.0,71,0.00,,OVC047,0.00,VWS V14.01,2013-04-08 21:33:00,
2013-04-08 16:38:00,75.2,65.6,29.67,SSW,199,2.0,8.0,72,0.00,,OVC047,0.00,VWS V14.01,2013-04-08 21:38:00,
2013-04-08 16:44:00,75.0,65.4,29.67,SSE,153,3.0,10.0,72,0.00,,OVC047,0.00,VWS V14.01,2013-04-08 21:44:00,
2013-04-08 16:49:00,74.8,65.2,29.67,ESE,111,5.0,13.0,72,0.00,,OVC047,0.00,VWS V14.01,2013-04-08 21:49:00,
2013-04-08 16:54:00,74.5,64.9,29.67,South,187,4.0,12.0,72,0.00,,OVC047,0.00,VWS V14.01,2013-04-08 21:54:00,
2013-04-08 16:59:00,74.3,65.1,29.67,ESE,117,4.0,11.0,73,0.00,,OVC047,0.00,VWS V14.01,2013-04-08 21:59:00,
2013-04-08 17:04:00,74.2,65.0,29.67,SSW,209,6.0,14.0,73,0.00,,OVC048,0.00,VWS V14.01,2013-04-08 22:04:00,
2013-04-08 17:09:00,74.0,64.8,29.67,South,183,8.0,18.0,73,0.00,,OVC048,0.00,VWS V14.01,2013-04-08 22:09:00,
2013-04-08 17:14:00,73.8,65.0,29.66,South,169,14.0,14.0,74,0.00,,OVC048,0.00,VWS V14.01,2013-04-08 22:14:00,
2013-04-08 17:19:00,73.9,65.1,29.66,SSE,163,5.0,12.0,74,0.00,,OVC048,0.00,VWS V14.01,2013-04-08 22:19:00,
2013-04-08 17:24:00,74.0,64.8,29.66,SSW,194,2.0,9.0,73,0.00,,OVC048,0.00,VWS V14.01,2013-04-08 22:24:00,
2013-04-08 17:29:00,74.1,64.9,29.66,SSE,162,5.0,9.0,73,0.00,,OVC048,0.00,VWS V14.01,2013-04-08 22:29:00,
2013-04-08 17:34:00,74.1,64.9,29.66,ESE,114,8.0,12.0,73,0.00,,OVC048,0.00,VWS V14.01,2013-04-08 22:34:00,
2013-04-08 17:39:00,74.1,64.9,29.66,SSE,155,4.0,11.0,73,0.00,,OVC048,0.00,VWS V14.01,2013-04-08 22:39:00,
2013-04-08 17:44:00,74.1,64.9,29.66,WSW,245,8.0,9.0,73,0.00,,OVC048,0.00,VWS V14.01,2013-04-08 22:44:00,
2013-04-08 17:50:00,74.1,64.5,29.66,SW,217,5.0,11.0,72,0.00,,OVC048,0.00,VWS V14.01,2013-04-08 22:50:00,
2013-04-08 17:55:00,74.1,64.5,29.66,ENE,58,5.0,10.0,72,0.00,,OVC048,0.00,VWS V14.01,2013-04-08 22:55:00,
2013-04-08 18:00:00,74.2,64.6,29.66,ESE,111,5.0,13.0,72,0.00,,OVC028,0.00,VWS V14.01,2013-04-08 23:00:00,
2013-04-08 18:05:00,74.2,64.6,29.66,SE,130,3.0,9.0,72,0.00,,OVC028,0.00,VWS V14.01,2013-04-08 23:05:00,
2013-04-08 18:10:00,74.2,64.6,29.66,SE,146,6.0,10.0,72,0.00,,OVC028,0.00,VWS V14.01,2013-04-08 23:10:00,
2013-04-08 18:15:00,74.2,64.6,29.66,South,171,3.0,8.0,72,0.00,,OVC028,0.00,VWS V14.01,2013-04-08 23:15:00,
2013-04-08 18:20:00,74.2,65.0,29.66,SSW,210,8.0,10.0,73,0.00,,OVC028,0.00,VWS V14.01,2013-04-08 23:20:00,
2013-04-08 18:25:00,74.2,65.0,29.66,SW,215,8.0,12.0,73,0.00,,OVC028,0.00,VWS V14.01,2013-04-08 23:25:00,
2013-04-08 18:30:00,74.2,65.0,29.66,SE,131,6.0,12.0,73,0.00,,OVC028,0.00,VWS V14.01,2013-04-08 23:30:00,
2013-04-08 18:35:00,74.2,65.0,29.66,South,175,3.0,10.0,73,0.00,,OVC028,0.00,VWS V14.01,2013-04-08 23:35:00,
2013-04-08 18:40:00,74.2,65.0,29.66,SSE,148,3.0,17.0,73,0.00,,OVC028,0.00,VWS V14.01,2013-04-08 23:40:00,
2013-04-08 18:45:00,74.2,65.0,29.66,SSE,151,5.0,12.0,73,0.00,,OVC028,0.00,VWS V14.01,2013-04-08 23:45:00,
2013-04-08 18:50:00,74.2,65.0,29.66,SSE,153,4.0,12.0,73,0.00,,OVC028,0.00,VWS V14.01,2013-04-08 23:50:00,
2013-04-08 18:55:00,74.2,65.0,29.66,SSE,157,6.0,11.0,73,0.00,,OVC028,0.00,VWS V14.01,2013-04-08 23:55:00,
2013-04-08 19:00:00,74.2,65.0,29.66,West,275,3.0,11.0,73,0.00,,OVC033,0.00,VWS V14.01,2013-04-09 00:00:00,
2013-04-08 19:05:00,74.2,65.0,29.66,SSE,155,2.0,10.0,73,0.00,,OVC033,0.00,VWS V14.01,2013-04-09 00:05:00,
2013-04-08 19:10:00,74.2,65.0,29.66,ESE,123,3.0,8.0,73,0.00,,OVC033,0.00,VWS V14.01,2013-04-09 00:10:00,
2013-04-08 19:15:00,74.2,65.0,29.66,ESE,123,4.0,7.0,73,0.00,,OVC033,0.00,VWS V14.01,2013-04-09 00:15:00,
2013-04-08 19:20:00,74.1,64.9,29.66,SW,214,5.0,9.0,73,0.00,,OVC033,0.00,VWS V14.01,2013-04-09 00:20:00,
2013-04-08 19:25:00,74.1,64.9,29.66,SW,229,2.0,7.0,73,0.00,,OVC033,0.00,VWS V14.01,2013-04-09 00:25:00,
2013-04-08 19:30:00,74.1,64.9,29.66,SSW,207,6.0,11.0,73,0.00,,OVC033,0.00,VWS V14.01,2013-04-09 00:30:00,
2013-04-08 19:35:00,74.1,64.9,29.66,SSE,159,2.0,7.0,73,0.00,,OVC033,0.00,VWS V14.01,2013-04-09 00:35:00,
2013-04-08 19:40:00,74.1,64.9,29.66,WSW,242,4.0,9.0,73,0.00,,OVC033,0.00,VWS V14.01,2013-04-09 00:40:00,
2013-04-08 19:45:00,74.1,64.9,29.66,SE,141,2.0,9.0,73,0.00,,OVC033,0.00,VWS V14.01,2013-04-09 00:45:00,
2013-04-08 19:50:00,74.0,64.8,29.66,SSW,211,3.0,8.0,73,0.00,,OVC033,0.00,VWS V14.01,2013-04-09 00:50:00,
2013-04-08 19:55:00,73.9,64.7,29.66,SSW,207,1.0,10.0,73,0.00,,OVC033,0.00,VWS V14.01,2013-04-09 00:55:00,
2013-04-08 20:00:00,74.0,65.2,29.66,SSE,166,3.0,8.0,74,0.00,,OVC055,0.00,VWS V14.01,2013-04-09 01:00:00,
2013-04-08 20:05:00,73.9,65.1,29.66,WSW,242,2.0,6.0,74,0.00,,OVC055,0.00,VWS V14.01,2013-04-09 01:05:00,
2013-04-08 20:10:00,73.9,65.1,29.66,SSE,165,2.0,5.0,74,0.00,,OVC055,0.00,VWS V14.01,2013-04-09 01:10:00,
2013-04-08 20:15:00,73.9,65.1,29.65,SSW,205,1.0,8.0,74,0.00,,OVC055,0.00,VWS V14.01,2013-04-09 01:15:00,
2013-04-08 20:21:00,73.8,65.0,29.65,SSE,157,3.0,6.0,74,0.00,,OVC055,0.00,VWS V14.01,2013-04-09 01:21:00,
2013-04-08 20:26:00,73.8,65.0,29.65,SSE,167,3.0,6.0,74,0.00,,OVC055,0.00,VWS V14.01,2013-04-09 01:26:00,
2013-04-08 20:31:00,73.7,64.9,29.65,SSW,193,1.0,6.0,74,0.00,,OVC055,0.00,VWS V14.01,2013-04-09 01:31:00,
2013-04-08 20:36:00,73.7,64.9,29.65,South,180,3.0,8.0,74,0.00,,OVC055,0.00,VWS V14.01,2013-04-09 01:36:00,
2013-04-08 20:41:00,73.6,64.8,29.65,South,188,0.0,6.0,74,0.00,,OVC055,0.00,VWS V14.01,2013-04-09 01:41:00,
2013-04-08 20:45:00,73.6,64.8,29.65,SSE,157,1.0,8.0,74,0.00,,OVC055,0.00,VWS V14.01,2013-04-09 01:45:00,
2013-04-08 20:51:00,73.6,64.8,29.65,SSW,203,1.0,8.0,74,0.00,,OVC055,0.00,VWS V14.01,2013-04-09 01:51:00,
2013-04-08 20:56:00,73.6,64.8,29.66,SSE,165,3.0,9.0,74,0.00,,OVC055,0.00,VWS V14.01,2013-04-09 01:56:00,
2013-04-08 21:01:00,73.7,64.9,29.66,South,173,3.0,7.0,74,0.00,,OVC055,0.00,VWS V14.01,2013-04-09 02:01:00,
2013-04-08 21:06:00,73.7,64.9,29.66,SSE,160,2.0,8.0,74,0.00,,OVC055,0.00,VWS V14.01,2013-04-09 02:06:00,
2013-04-08 21:11:00,73.7,64.9,29.66,SSE,155,6.0,6.0,74,0.00,,OVC055,0.00,VWS V14.01,2013-04-09 02:11:00,
2013-04-08 21:16:00,73.7,64.9,29.66,NNE,28,4.0,10.0,74,0.00,,OVC055,0.00,VWS V14.01,2013-04-09 02:16:00,
2013-04-08 21:21:00,73.7,64.9,29.66,SSW,195,6.0,7.0,74,0.00,,OVC055,0.00,VWS V14.01,2013-04-09 02:21:00,
2013-04-08 21:26:00,73.6,64.8,29.67,East,98,2.0,7.0,74,0.00,,OVC055,0.00,VWS V14.01,2013-04-09 02:26:00,
2013-04-08 21:31:00,73.6,64.8,29.67,SE,138,1.0,7.0,74,0.00,,OVC055,0.00,VWS V14.01,2013-04-09 02:31:00,
2013-04-08 21:36:00,73.6,64.8,29.68,SSW,199,3.0,9.0,74,0.00,,OVC055,0.00,VWS V14.01,2013-04-09 02:36:00,
2013-04-08 21:41:00,73.6,64.8,29.68,SW,229,6.0,6.0,74,0.00,,OVC055,0.00,VWS V14.01,2013-04-09 02:41:00,
2013-04-08 21:46:00,73.5,64.7,29.68,South,190,4.0,7.0,74,0.00,,OVC055,0.00,VWS V14.01,2013-04-09 02:46:00,
2013-04-08 21:51:00,73.5,64.7,29.68,SW,219,5.0,10.0,74,0.00,,OVC055,0.00,VWS V14.01,2013-04-09 02:51:00,
2013-04-08 21:56:00,73.4,64.6,29.68,SE,141,3.0,10.0,74,0.00,,OVC055,0.00,VWS V14.01,2013-04-09 02:56:00,
2013-04-08 22:01:00,73.4,64.6,29.68,South,176,4.0,4.0,74,0.00,,OVC050,0.00,VWS V14.01,2013-04-09 03:01:00,
2013-04-08 22:06:00,73.3,64.5,29.68,SW,217,4.0,7.0,74,0.00,,OVC050,0.00,VWS V14.01,2013-04-09 03:06:00,
2013-04-08 22:11:00,73.3,64.5,29.68,SW,217,3.0,3.0,74,0.00,,OVC050,0.00,VWS V14.01,2013-04-09 03:11:00,
2013-04-08 22:16:00,73.3,64.9,29.68,SE,146,4.0,9.0,75,0.00,,OVC050,0.00,VWS V14.01,2013-04-09 03:16:00,
2013-04-08 22:21:00,73.2,64.4,29.69,SSE,148,6.0,9.0,74,0.00,,OVC050,0.00,VWS V14.01,2013-04-09 03:21:00,
2013-04-08 22:26:00,73.2,64.4,29.69,SSE,160,2.0,5.0,74,0.00,,OVC050,0.00,VWS V14.01,2013-04-09 03:26:00,
2013-04-08 22:32:00,73.2,64.4,29.69,South,182,7.0,11.0,74,0.00,,OVC050,0.00,VWS V14.01,2013-04-09 03:32:00,
2013-04-08 22:36:00,73.2,64.4,29.69,SE,144,1.0,6.0,74,0.00,,OVC050,0.00,VWS V14.01,2013-04-09 03:36:00,
2013-04-08 22:41:00,73.1,64.3,29.69,SSW,206,5.0,5.0,74,0.00,,OVC050,0.00,VWS V14.01,2013-04-09 03:41:00,
2013-04-08 22:47:00,73.0,64.2,29.69,South,172,5.0,8.0,74,0.00,,OVC050,0.00,VWS V14.01,2013-04-09 03:47:00,
2013-04-08 22:52:00,73.0,64.2,29.69,SW,214,2.0,6.0,74,0.00,,OVC050,0.00,VWS V14.01,2013-04-09 03:52:00,
2013-04-08 22:57:00,72.9,64.1,29.69,SE,124,2.0,7.0,74,0.00,,OVC050,0.00,VWS V14.01,2013-04-09 03:57:00,
2013-04-08 23:00:00,72.8,64.0,29.69,South,183,5.0,10.0,74,0.00,,OVC050,0.00,VWS V14.01,2013-04-09 04:00:00,
2013-04-08 23:01:00,72.8,64.0,29.69,SW,217,3.0,3.0,74,0.00,,OVC045,0.00,VWS V14.01,2013-04-09 04:01:00,
2013-04-08 23:06:00,72.8,64.0,29.69,South,173,4.0,4.0,74,0.00,,OVC045,0.00,VWS V14.01,2013-04-09 04:06:00,
2013-04-08 23:11:00,72.7,63.9,29.69,SE,137,3.0,7.0,74,0.00,,OVC045,0.00,VWS V14.01,2013-04-09 04:11:00,
2013-04-08 23:16:00,72.6,63.8,29.69,SSW,202,4.0,5.0,74,0.00,,OVC045,0.00,VWS V14.01,2013-04-09 04:16:00,
2013-04-08 23:21:00,72.6,63.8,29.69,SSW,202,3.0,6.0,74,0.00,,OVC045,0.00,VWS V14.01,2013-04-09 04:21:00,
2013-04-08 23:27:00,72.5,63.8,29.69,South,176,7.0,7.0,74,0.00,,OVC045,0.00,VWS V14.01,2013-04-09 04:27:00,
2013-04-08 23:32:00,72.4,63.7,29.69,SSE,168,4.0,9.0,74,0.00,,OVC045,0.00,VWS V14.01,2013-04-09 04:32:00,
2013-04-08 23:37:00,72.3,63.6,29.69,WSW,238,3.0,6.0,74,0.00,,OVC045,0.00,VWS V14.01,2013-04-09 04:37:00,
2013-04-08 23:42:00,72.2,63.5,29.69,SW,219,14.0,14.0,74,0.00,,OVC045,0.00,VWS V14.01,2013-04-09 04:42:00,
2013-04-08 23:47:00,72.2,63.5,29.69,SE,146,8.0,11.0,74,0.00,,OVC045,0.00,VWS V14.01,2013-04-09 04:47:00,
2013-04-08 23:52:00,72.1,63.4,29.69,South,183,5.0,11.0,74,0.00,,OVC045,0.00,VWS V14.01,2013-04-09 04:52:00,
2013-04-08 23:57:00,72.0,63.3,29.69,SW,233,9.0,9.0,74,0.00,,OVC045,0.00,VWS V14.01,2013-04-09 04:57:00,